»·PEaware :: WAT463 KSBA-KSNA

WAT463 :: KSBA-KSNA

FLIGHT INFORMATION

Flight Status: Arrived
Operator:
Walker Air Transport
More flights by this operator :: More flights under this callsign
Pilot: Dan S. (31216)
Aircraft: CESSNA 182 SKYLANE
(C182)
More flights by this aircraft type
Origin: KSBA Santa Barbara Mun
United States
Destination: KSNA John Wayne-Orange Co
United States
More flights between these airports :: More routes between these airports
Route: KWANG CMA VNY V186 BAYJY V363 POXKU V8 SLI
File this flight plan on PilotEdge
Remarks:
Altitude:
(Current/Filed)
5,000ft
Speed:
(Current/Filed)
145kts
Departed: 12-Jan-21 09:52 PM
Arrived: 12-Jan-21 10:45 PM
Distance/Time
Traveled:
108nm/0:53
Distance/Time
To Go:
Arrived

Flight Plot

Page will automatically refresh every two minutes.


Map Options




Map Legend


Flown Route
Filed Route
Departure Airport
Arrival Airport
Navaid (VOR, NDB)
Fix

Horizontal Profiles

Position Reports

Time Latitude Longitude Heading Altitude Ground
Speed
12-Jan-21 21:31 34.432570 -119.835084 71 16ft 0kts
12-Jan-21 21:32 34.432570 -119.835084 71 16ft 0kts
12-Jan-21 21:33 34.432570 -119.835083 71 16ft 0kts
12-Jan-21 21:34 34.432570 -119.835083 71 16ft 0kts
12-Jan-21 21:35 34.432570 -119.835083 71 16ft 0kts
12-Jan-21 21:36 34.432570 -119.835083 71 16ft 0kts
12-Jan-21 21:37 34.432570 -119.835083 71 16ft 0kts
12-Jan-21 21:38 34.432570 -119.835083 71 16ft 0kts
12-Jan-21 21:39 34.432570 -119.835083 71 16ft 0kts
12-Jan-21 21:40 34.432570 -119.835083 71 16ft 0kts
12-Jan-21 21:41 34.432570 -119.835083 71 16ft 0kts
12-Jan-21 21:42 34.432570 -119.835083 71 16ft 0kts
12-Jan-21 21:43 34.432570 -119.835083 71 16ft 0kts
12-Jan-21 21:44 34.432573 -119.835071 73 16ft 1kts
12-Jan-21 21:45 34.432200 -119.835107 236 16ft 0kts
12-Jan-21 21:46 34.429443 -119.835319 172 13ft 22kts
12-Jan-21 21:47 34.428786 -119.834405 205 13ft 0kts
12-Jan-21 21:48 34.428786 -119.834405 205 13ft 0kts
12-Jan-21 21:49 34.428786 -119.834405 205 13ft 0kts
12-Jan-21 21:50 34.428766 -119.834416 205 13ft 2kts
12-Jan-21 21:51 34.427827 -119.852723 271 582ft 94kts
12-Jan-21 21:52 34.424211 -119.887330 262 1922ft 100kts
12-Jan-21 21:53 34.413164 -119.909975 182 2846ft 104kts
12-Jan-21 21:54 34.398607 -119.885117 99 3951ft 99kts
12-Jan-21 21:55 34.391709 -119.856831 99 4923ft 104kts
12-Jan-21 21:56 34.381318 -119.813261 101 5001ft 151kts
12-Jan-21 21:57 34.369182 -119.762798 102 5000ft 159kts
12-Jan-21 21:58 34.356812 -119.711622 103 5018ft 157kts
12-Jan-21 21:59 34.344496 -119.660653 103 5018ft 157kts
12-Jan-21 22:00 34.332207 -119.609848 103 5018ft 157kts
12-Jan-21 22:01 34.319894 -119.559008 101 5009ft 157kts
12-Jan-21 22:02 34.307777 -119.508207 100 5019ft 157kts
12-Jan-21 22:03 34.296105 -119.457256 100 5019ft 157kts
12-Jan-21 22:04 34.284444 -119.406316 100 5019ft 157kts
12-Jan-21 22:05 34.272877 -119.355899 100 5018ft 154kts
12-Jan-21 22:06 34.261426 -119.306063 100 5019ft 153kts
12-Jan-21 22:07 34.249993 -119.256419 100 5019ft 153kts
12-Jan-21 22:08 34.238552 -119.206662 102 5018ft 154kts
12-Jan-21 22:09 34.226880 -119.156341 102 5018ft 155kts
12-Jan-21 22:10 34.215258 -119.106209 102 5018ft 155kts
12-Jan-21 22:11 34.213490 -119.055047 85 5018ft 152kts
12-Jan-21 22:12 34.214353 -119.003640 85 5018ft 152kts
12-Jan-21 22:13 34.215350 -118.952401 85 5018ft 152kts
12-Jan-21 22:14 34.216339 -118.900931 85 5019ft 152kts
12-Jan-21 22:15 34.217303 -118.849689 85 5019ft 152kts
12-Jan-21 22:16 34.218249 -118.798322 85 5019ft 152kts
12-Jan-21 22:17 34.219205 -118.747132 85 5019ft 152kts
12-Jan-21 22:18 34.220063 -118.695548 83 5001ft 153kts
12-Jan-21 22:19 34.220953 -118.643940 83 5001ft 153kts
12-Jan-21 22:20 34.221820 -118.592505 83 5001ft 153kts
12-Jan-21 22:21 34.222560 -118.547279 83 5001ft 153kts
12-Jan-21 22:22 34.223024 -118.495389 95 4996ft 159kts
12-Jan-21 22:23 34.208798 -118.443909 105 4998ft 161kts
12-Jan-21 22:24 34.193437 -118.392821 105 4992ft 161kts
12-Jan-21 22:25 34.177992 -118.341939 106 4991ft 161kts
12-Jan-21 22:26 34.162517 -118.291065 106 4991ft 161kts
12-Jan-21 22:27 34.147042 -118.240155 107 4992ft 161kts
12-Jan-21 22:28 34.131687 -118.189890 108 4991ft 158kts
12-Jan-21 22:29 34.116403 -118.139901 108 4984ft 159kts
12-Jan-21 22:30 34.101082 -118.089859 108 4982ft 158kts
12-Jan-21 22:31 34.075584 -118.046978 131 4633ft 160kts
12-Jan-21 22:32 34.045537 -118.007433 131 4136ft 159kts
12-Jan-21 22:33 34.015703 -117.968168 131 3640ft 158kts
12-Jan-21 22:35 33.986143 -117.929222 131 3145ft 157kts
12-Jan-21 22:36 33.957146 -117.891006 131 2982ft 150kts
12-Jan-21 22:37 33.929088 -117.854127 131 2991ft 149kts
12-Jan-21 22:38 33.900996 -117.817213 131 2991ft 149kts
12-Jan-21 22:39 33.872464 -117.780845 149 2983ft 150kts
12-Jan-21 22:40 33.831171 -117.779374 181 2999ft 149kts
12-Jan-21 22:41 33.791601 -117.795107 210 2496ft 157kts
12-Jan-21 22:42 33.755321 -117.818305 208 1717ft 143kts
12-Jan-21 22:43 33.720812 -117.840197 208 956ft 132kts
12-Jan-21 22:44 33.695468 -117.856380 207 425ft 80kts
12-Jan-21 22:45 33.679047 -117.866731 208 62ft 38kts
12-Jan-21 22:46 33.678184 -117.868406 324 62ft 0kts
12-Jan-21 22:47 33.681249 -117.866564 105 62ft 8kts
12-Jan-21 22:48 33.681223 -117.866478 112 62ft 0kts
12-Jan-21 22:48 33.680312 -117.865923 202 62ft 30kts
12-Jan-21 22:50 33.659115 -117.886045 257 1008ft 105kts
12-Jan-21 22:51 33.681216 -117.893704 28 1156ft 116kts
12-Jan-21 22:52 33.707222 -117.874097 35 985ft 87kts
12-Jan-21 22:52 33.705425 -117.855875 161 753ft 80kts
12-Jan-21 22:54 33.683267 -117.863973 208 132ft 64kts
12-Jan-21 22:54 33.677325 -117.866603 118 62ft 9kts
12-Jan-21 22:56 33.673579 -117.866798 208 62ft 14kts
12-Jan-21 22:56 33.671862 -117.867206 206 62ft 0kts
12-Jan-21 22:57 33.671863 -117.867205 206 62ft 0kts

Navigation Log

Ident Type
Flight plan parsing failed, navigation log unavailable